createdAt,value
2018-08-19T00:00:32.742Z,65.82
2018-08-19T00:03:02.308Z,65.91
2018-08-19T00:05:30.897Z,66.20
2018-08-19T00:07:59.453Z,66.49
2018-08-19T00:10:40.530Z,66.42
2018-08-19T00:13:10.486Z,66.67
2018-08-19T00:15:39.642Z,66.64
2018-08-19T00:18:09.970Z,66.73
2018-08-19T00:20:38.513Z,66.93
2018-08-19T00:23:07.641Z,66.59
2018-08-19T00:25:39.594Z,66.95
2018-08-19T00:28:09.769Z,67.40
2018-08-19T00:30:38.373Z,66.86
2018-08-19T00:33:07.146Z,67.49
2018-08-19T00:35:35.875Z,67.18
2018-08-19T00:38:04.345Z,67.96
2018-08-19T00:40:32.962Z,68.99
2018-08-19T00:43:01.576Z,70.31
2018-08-19T00:45:30.090Z,70.59
2018-08-19T00:47:58.881Z,72.18
2018-08-19T00:50:27.313Z,72.12
2018-08-19T00:52:56.216Z,71.84
2018-08-19T00:55:25.209Z,71.94
2018-08-19T00:57:59.821Z,71.72
2018-08-19T01:00:29.400Z,72.12
2018-08-19T01:02:57.925Z,71.66
2018-08-19T01:05:26.406Z,71.48
2018-08-19T01:07:55.085Z,71.55
2018-08-19T01:10:23.550Z,71.24
2018-08-19T01:12:52.186Z,71.20
2018-08-19T01:15:20.857Z,71.52
2018-08-19T01:17:49.297Z,71.42
2018-08-19T01:20:22.033Z,70.91
2018-08-19T01:22:50.586Z,70.88
2018-08-19T01:25:19.188Z,71.18
2018-08-19T01:27:47.966Z,70.62
2018-08-19T01:30:20.973Z,70.83
2018-08-19T01:32:49.689Z,70.51
2018-08-19T01:35:21.345Z,70.92
2018-08-19T01:37:49.817Z,70.50
2018-08-19T01:40:18.733Z,70.56
2018-08-19T01:42:47.824Z,70.96
2018-08-19T01:45:16.331Z,71.11
2018-08-19T01:47:44.877Z,70.87
2018-08-19T01:50:16.013Z,70.69
2018-08-19T01:52:45.362Z,70.72
2018-08-19T01:55:13.849Z,70.54
2018-08-19T01:57:45.877Z,70.80
2018-08-19T02:00:15.090Z,70.35
2018-08-19T02:03:01.986Z,70.86
2018-08-19T02:05:30.814Z,70.88
2018-08-19T02:08:01.717Z,70.42
2018-08-19T02:10:31.452Z,70.25
2018-08-19T02:13:00.485Z,70.05
2018-08-19T02:15:30.008Z,70.08
2018-08-19T02:18:04.649Z,69.96
2018-08-19T02:20:35.331Z,69.75
2018-08-19T02:23:06.231Z,69.50
2018-08-19T02:25:36.972Z,68.87
2018-08-19T02:28:06.813Z,69.36
2018-08-19T02:30:35.609Z,69.53
2018-08-19T02:33:04.614Z,69.41
2018-08-19T02:35:33.849Z,69.38
2018-08-19T02:38:02.685Z,69.44
2018-08-19T02:40:32.435Z,69.68
2018-08-19T02:43:01.134Z,68.97
2018-08-19T02:45:29.637Z,69.13
2018-08-19T02:47:58.128Z,69.12
2018-08-19T02:50:27.085Z,68.80
2018-08-19T02:52:55.553Z,68.29
2018-08-19T02:55:25.805Z,67.58
2018-08-19T02:57:59.438Z,66.06
2018-08-19T03:00:27.954Z,65.32
2018-08-19T03:02:56.425Z,64.01
2018-08-19T03:05:24.925Z,63.41
2018-08-19T03:07:53.722Z,63.57
2018-08-19T03:10:22.370Z,63.56
2018-08-19T03:12:50.845Z,63.43
2018-08-19T03:15:19.851Z,62.91
2018-08-19T03:17:48.860Z,63.17
2018-08-19T03:20:17.330Z,62.50
2018-08-19T03:22:46.241Z,62.60
2018-08-19T03:25:14.708Z,62.91
2018-08-19T03:27:43.209Z,63.04
2018-08-19T03:30:13.513Z,62.73
2018-08-19T03:32:46.990Z,62.89
2018-08-19T03:35:16.566Z,62.79
2018-08-19T03:37:45.309Z,63.41
2018-08-19T03:40:13.983Z,63.00
2018-08-19T03:42:42.557Z,63.56
2018-08-19T03:45:16.313Z,63.85
2018-08-19T03:47:44.872Z,64.24
2018-08-19T03:50:18.716Z,64.18
2018-08-19T03:52:47.261Z,63.88
2018-08-19T03:55:20.178Z,64.09
2018-08-19T03:57:49.337Z,64.77
2018-08-19T04:00:19.141Z,64.30
2018-08-19T04:02:47.749Z,64.35
2018-08-19T04:05:16.605Z,64.59
2018-08-19T04:07:45.046Z,64.39
2018-08-19T04:10:13.741Z,64.61
2018-08-19T04:12:42.768Z,64.53
2018-08-19T04:15:11.533Z,64.28
2018-08-19T04:17:40.066Z,64.05
2018-08-19T04:20:08.741Z,63.96
2018-08-19T04:22:37.178Z,64.53
2018-08-19T04:25:06.037Z,64.37
2018-08-19T04:27:34.707Z,64.20
2018-08-19T04:30:03.134Z,64.10
2018-08-19T04:32:32.501Z,64.72
2018-08-19T04:35:01.654Z,63.94
2018-08-19T04:37:30.413Z,63.83
2018-08-19T04:40:00.027Z,63.96
2018-08-19T04:42:28.977Z,63.84
2018-08-19T04:44:57.765Z,63.92
2018-08-19T04:47:31.165Z,64.01
2018-08-19T04:49:59.663Z,63.95
2018-08-19T04:52:28.193Z,64.39
2018-08-19T04:54:57.282Z,64.51
2018-08-19T04:57:25.743Z,64.57
2018-08-19T04:59:54.191Z,64.25
2018-08-19T05:02:23.028Z,64.05
2018-08-19T05:04:51.378Z,64.45
2018-08-19T05:07:19.837Z,64.37
2018-08-19T05:09:48.517Z,64.51
2018-08-19T05:12:16.957Z,64.75
2018-08-19T05:14:45.467Z,64.61
2018-08-19T05:17:14.033Z,64.78
2018-08-19T05:19:42.485Z,64.73
2018-08-19T05:22:13.166Z,64.87
2018-08-19T05:24:41.817Z,64.44
2018-08-19T05:27:10.477Z,64.77
2018-08-19T05:29:39.913Z,64.31
2018-08-19T05:32:13.334Z,64.14
2018-08-19T05:34:42.950Z,64.25
2018-08-19T05:37:11.464Z,64.73
2018-08-19T05:39:45.054Z,63.45
2018-08-19T05:42:14.405Z,63.63
2018-08-19T05:44:43.458Z,63.72
2018-08-19T05:47:18.575Z,63.62
2018-08-19T05:49:47.970Z,63.30
2018-08-19T05:52:21.772Z,63.61
2018-08-19T05:54:57.483Z,63.99
2018-08-19T05:57:26.321Z,63.67
2018-08-19T05:59:55.233Z,63.47
2018-08-19T06:02:33.635Z,64.31
2018-08-19T06:05:03.325Z,63.96
2018-08-19T06:07:31.886Z,63.65
2018-08-19T06:10:00.658Z,63.23
2018-08-19T06:12:29.143Z,63.48
2018-08-19T06:15:00.955Z,62.68
2018-08-19T06:17:29.877Z,62.60
2018-08-19T06:19:58.685Z,62.33
2018-08-19T06:22:32.443Z,62.50
2018-08-19T06:25:01.058Z,62.64
2018-08-19T06:27:32.768Z,62.57
2018-08-19T06:30:01.178Z,62.08
2018-08-19T06:32:32.384Z,62.18
2018-08-19T06:35:01.451Z,62.54
2018-08-19T06:37:29.681Z,61.99
2018-08-19T06:39:58.325Z,61.79
2018-08-19T06:42:27.185Z,61.31
2018-08-19T06:44:55.690Z,61.42
2018-08-19T06:47:24.508Z,60.78
2018-08-19T06:49:53.722Z,59.59
2018-08-19T06:52:22.992Z,60.02
2018-08-19T06:54:51.974Z,59.87
2018-08-19T06:57:20.505Z,60.33
2018-08-19T06:59:48.976Z,59.78
2018-08-19T07:02:17.791Z,59.28
2018-08-19T07:04:47.594Z,59.23
2018-08-19T07:07:17.287Z,59.14
2018-08-19T07:09:46.221Z,58.24
2018-08-19T07:12:17.374Z,57.94
2018-08-19T07:14:46.482Z,57.68
2018-08-19T07:17:15.637Z,57.88
2018-08-19T07:19:44.154Z,57.37
2018-08-19T07:22:15.908Z,56.78
2018-08-19T07:24:44.466Z,55.92
2018-08-19T07:27:12.971Z,55.34
2018-08-19T07:29:41.476Z,55.58
2018-08-19T07:32:11.489Z,54.17
2018-08-19T07:34:40.989Z,53.15
2018-08-19T07:37:09.988Z,53.88
2018-08-19T07:39:45.443Z,53.79
2018-08-19T07:42:14.476Z,53.30
2018-08-19T07:44:43.433Z,52.64
2018-08-19T07:47:11.937Z,52.92
2018-08-19T07:49:40.847Z,52.18
2018-08-19T07:52:09.409Z,52.76
2018-08-19T07:54:38.110Z,51.60
2018-08-19T07:57:16.569Z,50.90
2018-08-19T07:59:47.625Z,50.94
2018-08-19T08:02:16.273Z,51.23
2018-08-19T08:04:45.629Z,51.94
2018-08-19T08:07:14.848Z,51.48
2018-08-19T08:09:43.655Z,51.14
2018-08-19T08:12:13.541Z,49.54
2018-08-19T08:14:56.350Z,49.58
2018-08-19T08:17:26.223Z,48.65
2018-08-19T08:20:03.409Z,48.99
2018-08-19T08:22:32.833Z,49.08
2018-08-19T08:25:01.553Z,47.47
2018-08-19T08:27:31.113Z,47.88
2018-08-19T08:30:02.351Z,47.42
2018-08-19T08:32:30.797Z,48.13
2018-08-19T08:34:59.761Z,48.61
2018-08-19T08:37:28.581Z,47.71
2018-08-19T08:40:02.445Z,48.76
2018-08-19T08:42:45.301Z,48.06
2018-08-19T08:45:15.289Z,48.60
2018-08-19T08:47:43.933Z,47.96
2018-08-19T08:50:13.287Z,47.44
2018-08-19T08:52:44.661Z,47.21
2018-08-19T08:55:13.945Z,47.47
2018-08-19T08:57:42.469Z,48.29
2018-08-19T09:00:12.981Z,48.65
2018-08-19T09:02:41.453Z,47.94
2018-08-19T09:05:12.201Z,47.29
2018-08-19T09:07:41.966Z,46.83
2018-08-19T09:10:12.764Z,47.61
2018-08-19T09:12:52.418Z,48.26
2018-08-19T09:15:21.280Z,49.08
2018-08-19T09:17:49.859Z,48.34
2018-08-19T09:20:18.565Z,48.25
2018-08-19T09:22:47.745Z,45.89
2018-08-19T09:25:16.237Z,45.55
2018-08-19T09:27:45.078Z,44.29
2018-08-19T09:30:45.105Z,44.30
2018-08-19T09:33:14.273Z,43.86
2018-08-19T09:35:43.860Z,44.01
2018-08-19T09:38:15.001Z,44.72
2018-08-19T09:40:43.887Z,44.37
2018-08-19T09:43:12.522Z,44.17
2018-08-19T09:45:41.869Z,44.28
2018-08-19T09:48:11.122Z,43.38
2018-08-19T09:50:40.589Z,43.09
2018-08-19T09:53:09.165Z,42.55
2018-08-19T09:55:39.959Z,42.03
2018-08-19T09:58:20.018Z,42.56
2018-08-19T10:00:53.581Z,41.69
2018-08-19T10:03:22.153Z,41.74
2018-08-19T10:05:50.613Z,42.54
2018-08-19T10:08:22.125Z,41.57
2018-08-19T10:10:50.983Z,42.39
2018-08-19T10:13:19.481Z,42.42
2018-08-19T10:15:47.969Z,43.43
2018-08-19T10:18:16.712Z,43.89
2018-08-19T10:20:45.164Z,43.24
2018-08-19T10:23:13.730Z,43.02
2018-08-19T10:25:42.506Z,43.17
2018-08-19T10:28:11.278Z,41.83
2018-08-19T10:30:44.877Z,40.87
2018-08-19T10:33:13.977Z,40.57
2018-08-19T10:35:42.415Z,40.33
2018-08-19T10:38:10.941Z,40.71
2018-08-19T10:40:39.852Z,41.10
2018-08-19T10:43:09.518Z,40.43
2018-08-19T10:45:39.561Z,41.66
2018-08-19T10:48:10.146Z,41.27
2018-08-19T10:50:38.641Z,41.58
2018-08-19T10:53:16.705Z,41.34
2018-08-19T10:55:46.776Z,41.24
2018-08-19T10:58:15.286Z,41.01
2018-08-19T11:00:43.794Z,40.89
2018-08-19T11:03:18.467Z,40.48
2018-08-19T11:05:48.008Z,39.28
2018-08-19T11:08:16.463Z,39.99
2018-08-19T11:10:45.261Z,40.89
2018-08-19T11:13:17.640Z,41.49
2018-08-19T11:15:51.617Z,41.65
2018-08-19T11:18:29.641Z,41.02
2018-08-19T11:21:02.051Z,41.16
2018-08-19T11:23:30.825Z,41.94
2018-08-19T11:25:59.903Z,42.31
2018-08-19T11:28:37.615Z,41.80
2018-08-19T11:31:07.196Z,41.46
2018-08-19T11:33:43.470Z,40.74
2018-08-19T11:36:12.633Z,41.24
2018-08-19T11:38:41.723Z,40.07
2018-08-19T11:41:12.188Z,38.41
2018-08-19T11:43:44.294Z,38.29
2018-08-19T11:46:13.037Z,37.09
2018-08-19T11:48:42.235Z,39.06
2018-08-19T11:51:11.110Z,38.08
2018-08-19T11:53:39.630Z,37.82
2018-08-19T11:56:08.342Z,37.14
2018-08-19T11:58:43.262Z,37.56
2018-08-19T12:01:13.951Z,36.83
2018-08-19T12:03:55.373Z,36.63
2018-08-19T12:06:25.757Z,37.29
2018-08-19T12:08:55.993Z,37.84
2018-08-19T12:11:27.657Z,38.27
2018-08-19T12:13:56.373Z,37.78
2018-08-19T12:16:26.114Z,37.24
2018-08-19T12:18:54.784Z,38.06
2018-08-19T12:21:24.353Z,38.83
2018-08-19T12:24:06.861Z,38.41
2018-08-19T12:26:40.149Z,38.53
2018-08-19T12:29:08.587Z,37.34
2018-08-19T12:31:37.081Z,36.69
2018-08-19T12:34:05.590Z,36.32
2018-08-19T12:36:34.030Z,36.92
2018-08-19T12:39:02.859Z,36.42
2018-08-19T12:41:32.833Z,36.19
2018-08-19T12:44:01.631Z,35.62
2018-08-19T12:46:30.530Z,36.18
2018-08-19T12:48:59.442Z,36.90
2018-08-19T12:51:27.943Z,36.58
2018-08-19T12:53:56.582Z,37.16
2018-08-19T12:56:25.194Z,36.43
2018-08-19T12:58:53.649Z,36.64
2018-08-19T13:01:22.198Z,36.25
2018-08-19T13:03:50.666Z,35.92
2018-08-19T13:06:19.203Z,37.04
2018-08-19T13:08:47.714Z,37.14
2018-08-19T13:11:16.218Z,38.32
2018-08-19T13:13:44.649Z,38.79
2018-08-19T13:16:13.270Z,38.39
2018-08-19T13:18:42.352Z,37.73
2018-08-19T13:21:15.461Z,38.86
2018-08-19T13:23:44.333Z,39.00
2018-08-19T13:26:12.845Z,38.79
2018-08-19T13:28:44.390Z,38.11
2018-08-19T13:31:15.498Z,37.41
2018-08-19T13:33:43.989Z,38.01
2018-08-19T13:36:12.474Z,38.46
2018-08-19T13:38:41.220Z,37.07
2018-08-19T13:41:10.327Z,36.73
2018-08-19T13:43:38.838Z,36.93
2018-08-19T13:46:07.740Z,36.68
2018-08-19T13:48:36.496Z,36.13
2018-08-19T13:51:05.217Z,36.90
2018-08-19T13:53:33.665Z,37.52
2018-08-19T13:56:02.161Z,36.90
2018-08-19T13:58:30.669Z,37.28
2018-08-19T14:00:59.210Z,36.62
2018-08-19T14:03:27.681Z,36.68
2018-08-19T14:05:56.166Z,37.34
2018-08-19T14:08:24.734Z,37.07
2018-08-19T14:10:53.178Z,37.52
2018-08-19T14:13:21.705Z,37.71
2018-08-19T14:15:50.397Z,38.03
2018-08-19T14:18:18.854Z,38.34
2018-08-19T14:20:47.407Z,38.87
2018-08-19T14:23:16.322Z,38.42
2018-08-19T14:25:44.784Z,37.92
2018-08-19T14:28:13.347Z,37.45
2018-08-19T14:30:42.121Z,37.58
2018-08-19T14:33:10.641Z,38.02
2018-08-19T14:35:39.166Z,37.47
2018-08-19T14:38:07.725Z,36.66
2018-08-19T14:40:36.180Z,36.60
2018-08-19T14:43:04.682Z,36.18
2018-08-19T14:45:33.585Z,36.49
2018-08-19T14:48:02.061Z,36.80
2018-08-19T14:50:30.558Z,37.27
2018-08-19T14:52:59.672Z,37.92
2018-08-19T14:55:28.142Z,38.74
2018-08-19T14:57:56.637Z,39.07
2018-08-19T15:00:25.385Z,38.66
2018-08-19T15:02:53.834Z,38.71
2018-08-19T15:05:22.350Z,38.42
2018-08-19T15:07:50.969Z,39.02
2018-08-19T15:10:23.142Z,39.47
2018-08-19T15:12:51.679Z,39.77
2018-08-19T15:15:20.274Z,39.84
2018-08-19T15:17:52.942Z,39.63
2018-08-19T15:20:30.511Z,40.36
2018-08-19T15:23:19.227Z,40.47
2018-08-19T15:25:47.977Z,40.73
2018-08-19T15:28:17.297Z,40.95
2018-08-19T15:30:45.846Z,40.15
2018-08-19T15:33:15.159Z,40.64
2018-08-19T15:35:44.092Z,40.32
2018-08-19T15:38:12.859Z,40.05
2018-08-19T15:40:46.597Z,40.29
2018-08-19T15:43:15.201Z,39.90
2018-08-19T15:45:45.054Z,39.14
2018-08-19T15:48:13.722Z,38.79
2018-08-19T15:50:42.341Z,39.46
2018-08-19T15:53:11.643Z,38.72
2018-08-19T15:55:40.711Z,38.10
2018-08-19T15:58:09.181Z,37.99
2018-08-19T16:00:40.213Z,38.42
2018-08-19T16:03:09.943Z,38.53
2018-08-19T16:05:38.674Z,38.93
2018-08-19T16:08:07.213Z,38.95
2018-08-19T16:10:35.945Z,38.41
2018-08-19T16:13:06.343Z,38.64
2018-08-19T16:15:34.787Z,38.47
2018-08-19T16:18:03.550Z,38.45
2018-08-19T16:20:32.013Z,38.41
2018-08-19T16:23:00.574Z,37.95
2018-08-19T16:25:29.229Z,37.47
2018-08-19T16:27:57.718Z,37.17
2018-08-19T16:30:26.309Z,36.27
2018-08-19T16:32:55.022Z,36.73
2018-08-19T16:35:23.550Z,37.27
2018-08-19T16:37:52.057Z,37.95
2018-08-19T16:40:20.838Z,37.91
2018-08-19T16:42:49.645Z,37.37
2018-08-19T16:45:18.181Z,38.19
2018-08-19T16:47:47.173Z,38.55
2018-08-19T16:50:15.639Z,38.92
2018-08-19T16:52:44.614Z,38.43
2018-08-19T16:55:13.545Z,38.87
2018-08-19T16:57:41.998Z,38.88
2018-08-19T17:00:10.934Z,39.87
2018-08-19T17:02:39.808Z,39.89
2018-08-19T17:05:27.633Z,40.33
2018-08-19T17:07:56.586Z,40.63
2018-08-19T17:10:25.821Z,40.63
2018-08-19T17:12:54.310Z,40.86
2018-08-19T17:15:23.687Z,40.85
2018-08-19T17:17:52.419Z,41.54
2018-08-19T17:20:20.929Z,41.58
2018-08-19T17:22:49.498Z,41.67
2018-08-19T17:25:18.221Z,41.89
2018-08-19T17:27:46.912Z,41.99
2018-08-19T17:30:18.415Z,42.43
2018-08-19T17:32:55.640Z,42.73
2018-08-19T17:35:24.393Z,42.82
2018-08-19T17:37:53.964Z,43.03
2018-08-19T17:40:22.397Z,43.51
2018-08-19T17:42:50.950Z,43.55
2018-08-19T17:45:19.469Z,43.72
2018-08-19T17:47:47.939Z,44.06
2018-08-19T17:50:21.377Z,44.37
2018-08-19T17:52:49.818Z,44.70
2018-08-19T17:55:21.397Z,44.85
2018-08-19T17:57:49.947Z,44.98
2018-08-19T18:00:18.545Z,45.31
2018-08-19T18:02:47.265Z,45.32
2018-08-19T18:05:15.804Z,45.63
2018-08-19T18:07:48.645Z,45.58
2018-08-19T18:10:17.152Z,45.86
2018-08-19T18:12:45.653Z,46.04
2018-08-19T18:15:14.393Z,46.40
2018-08-19T18:17:52.925Z,46.56
2018-08-19T18:20:28.848Z,46.79
2018-08-19T18:22:58.047Z,46.90
2018-08-19T18:25:26.601Z,47.06
2018-08-19T18:27:55.282Z,46.98
2018-08-19T18:30:26.806Z,46.92
2018-08-19T18:32:55.261Z,47.28
2018-08-19T18:35:24.106Z,47.44
2018-08-19T18:37:52.601Z,47.58
2018-08-19T18:40:31.725Z,48.18
2018-08-19T18:43:00.737Z,48.31
2018-08-19T18:45:29.629Z,48.30
2018-08-19T18:48:00.109Z,48.33
2018-08-19T18:50:28.661Z,48.75
2018-08-19T18:52:57.226Z,48.97
2018-08-19T18:55:26.733Z,48.76
2018-08-19T18:57:56.343Z,49.20
2018-08-19T19:00:26.516Z,48.89
2018-08-19T19:02:58.941Z,49.51
2018-08-19T19:05:42.286Z,49.72
2018-08-19T19:08:13.328Z,49.26
2018-08-19T19:10:50.881Z,49.58
2018-08-19T19:13:21.362Z,50.10
2018-08-19T19:15:50.105Z,49.97
2018-08-19T19:18:19.153Z,50.47
2018-08-19T19:20:52.693Z,50.57
2018-08-19T19:23:26.602Z,50.14
2018-08-19T19:25:58.791Z,50.82
2018-08-19T19:28:27.942Z,50.57
2018-08-19T19:31:02.087Z,51.22
2018-08-19T19:33:31.093Z,51.10
2018-08-19T19:36:09.238Z,51.03
2018-08-19T19:38:43.810Z,51.74
2018-08-19T19:41:12.986Z,51.49
2018-08-19T19:43:41.461Z,51.70
2018-08-19T19:46:09.890Z,51.81
2018-08-19T19:48:38.481Z,51.99
2018-08-19T19:51:07.136Z,52.53
2018-08-19T19:53:35.589Z,52.45
2018-08-19T19:56:11.450Z,52.55
2018-08-19T19:58:40.159Z,52.62
2018-08-19T20:01:08.619Z,52.42
2018-08-19T20:04:07.710Z,52.68
2018-08-19T20:06:36.222Z,52.65
2018-08-19T20:09:04.789Z,52.80
2018-08-19T20:11:33.317Z,53.39
2018-08-19T20:14:02.998Z,53.08
2018-08-19T20:16:31.573Z,53.13
2018-08-19T20:19:00.054Z,53.44
2018-08-19T20:21:29.406Z,53.32
2018-08-19T20:23:59.050Z,53.76
2018-08-19T20:26:27.953Z,53.83
2018-08-19T20:28:58.041Z,54.09
2018-08-19T20:31:26.577Z,53.96
2018-08-19T20:33:55.207Z,53.65
2018-08-19T20:36:23.683Z,53.67
2018-08-19T20:38:52.132Z,53.95
2018-08-19T20:41:20.757Z,54.39
2018-08-19T20:43:49.745Z,54.29
2018-08-19T20:46:18.222Z,54.00
2018-08-19T20:48:47.077Z,54.11
2018-08-19T20:51:15.652Z,54.68
2018-08-19T20:53:44.102Z,54.46
2018-08-19T20:56:12.830Z,54.58
2018-08-19T20:58:41.792Z,54.13
2018-08-19T21:01:16.985Z,54.35
2018-08-19T21:03:45.905Z,54.26
2018-08-19T21:06:14.341Z,53.77
2018-08-19T21:08:42.821Z,54.16
2018-08-19T21:11:11.762Z,54.15
2018-08-19T21:13:40.197Z,54.08
2018-08-19T21:16:08.784Z,53.63
2018-08-19T21:18:37.665Z,53.76
2018-08-19T21:21:06.178Z,54.03
2018-08-19T21:23:34.674Z,53.66
2018-08-19T21:26:03.284Z,54.12
2018-08-19T21:28:31.769Z,53.69
2018-08-19T21:31:00.805Z,54.16
2018-08-19T21:33:29.290Z,53.78
2018-08-19T21:35:57.737Z,54.24
2018-08-19T21:38:26.245Z,54.31
2018-08-19T21:40:56.594Z,53.96
2018-08-19T21:43:27.121Z,54.37
2018-08-19T21:45:55.642Z,54.16
2018-08-19T21:48:24.416Z,54.53
2018-08-19T21:50:52.945Z,54.65
2018-08-19T21:53:21.697Z,54.43
2018-08-19T21:55:51.361Z,54.72
2018-08-19T21:58:20.338Z,54.42
2018-08-19T22:00:57.337Z,54.84
2018-08-19T22:03:31.013Z,55.03
2018-08-19T22:05:59.588Z,54.61
2018-08-19T22:08:28.033Z,55.11
2018-08-19T22:10:56.601Z,55.10
2018-08-19T22:13:25.205Z,55.47
2018-08-19T22:15:53.665Z,55.20
2018-08-19T22:18:23.671Z,55.92
2018-08-19T22:21:05.562Z,55.66
2018-08-19T22:23:39.782Z,55.56
2018-08-19T22:26:09.686Z,56.02
2018-08-19T22:28:38.481Z,56.26
2018-08-19T22:31:19.163Z,56.11
2018-08-19T22:33:50.163Z,56.02
2018-08-19T22:36:19.261Z,56.51
2018-08-19T22:38:48.183Z,56.33
2018-08-19T22:41:20.965Z,56.54
2018-08-19T22:43:49.693Z,56.60
2018-08-19T22:46:18.479Z,56.85
2018-08-19T22:48:47.008Z,56.53
2018-08-19T22:51:15.697Z,56.67
2018-08-19T22:53:44.308Z,57.08
2018-08-19T22:56:12.797Z,57.34
2018-08-19T22:58:41.969Z,56.80
2018-08-19T23:01:10.548Z,56.83
2018-08-19T23:03:39.044Z,56.97
2018-08-19T23:06:14.133Z,57.55
2018-08-19T23:08:42.647Z,57.21
2018-08-19T23:11:11.191Z,57.58
2018-08-19T23:13:51.024Z,57.27
2018-08-19T23:16:21.985Z,57.66
2018-08-19T23:18:50.469Z,57.70
2018-08-19T23:21:19.313Z,57.94
2018-08-19T23:23:47.757Z,57.86
2018-08-19T23:26:16.213Z,57.59
2018-08-19T23:28:45.052Z,58.00
2018-08-19T23:31:13.588Z,58.07
2018-08-19T23:33:42.265Z,57.68
2018-08-19T23:36:11.621Z,57.97
2018-08-19T23:38:40.305Z,58.21
2018-08-19T23:41:08.995Z,58.37
2018-08-19T23:43:37.686Z,58.41
2018-08-19T23:46:06.452Z,57.86
2018-08-19T23:48:34.918Z,58.47
2018-08-19T23:51:04.045Z,58.41
2018-08-19T23:53:32.532Z,58.29
2018-08-19T23:56:00.975Z,58.42
2018-08-19T23:58:29.817Z,58.24
